Time;durP1;ratioP1;P1;durP2;ratioP2;P2;SDS_P1;SDS_P2;PMS_P1;PMS_P2;Temp;Humidity;BMP_temperature;BMP_pressure;BME280_temperature;BME280_humidity;BME280_pressure;Samples;Min_cycle;Max_cycle;Signal;HPM_P1;HPM_P2
2022/07/06 00:01:55;;;;;;;1.95;1.25;;;;;;;11.38;84.89;102599.16;5013656;28;20145;-44
2022/07/06 00:04:21;;;;;;;2.28;1.67;;;;;;;11.36;84.44;102607.56;5013499;28;20082;-43
2022/07/06 00:06:48;;;;;;;4.05;1.42;;;;;;;11.35;84.53;102606.06;5013494;28;20050;-50
2022/07/06 00:09:14;;;;;;;3.70;1.70;;;;;;;11.28;84.68;102606.88;5012530;28;20094;-47
2022/07/06 00:11:41;;;;;;;1.77;1.33;;;;;;;11.28;85.27;102606.13;5013539;28;20054;-46
2022/07/06 00:14:07;;;;;;;2.95;1.25;;;;;;;11.25;85.05;102607.69;5012995;28;20072;-47
2022/07/06 00:16:33;;;;;;;4.05;1.65;;;;;;;11.19;85.31;102605.88;5013233;28;20074;-44
2022/07/06 00:19:00;;;;;;;3.30;1.58;;;;;;;11.17;85.34;102600.94;5013503;28;20430;-44
2022/07/06 00:21:26;;;;;;;6.95;1.65;;;;;;;11.18;85.61;102604.38;5012328;28;20146;-46
2022/07/06 00:23:53;;;;;;;2.05;1.67;;;;;;;11.16;85.88;102601.34;5012142;28;20046;-44
2022/07/06 00:26:20;;;;;;;3.60;1.65;;;;;;;11.14;85.78;102604.41;5014354;28;20092;-46
2022/07/06 00:28:46;;;;;;;1.85;1.60;;;;;;;11.12;86.01;102604.03;5016557;28;20569;-42
2022/07/06 00:31:13;;;;;;;4.15;1.67;;;;;;;11.09;86.64;102593.41;5016243;28;20109;-43
2022/07/06 00:33:39;;;;;;;4.85;1.70;;;;;;;11.12;86.58;102592.63;5015974;28;20985;-43
2022/07/06 00:36:05;;;;;;;1.60;1.50;;;;;;;11.10;86.22;102598.34;5016094;28;20074;-44
2022/07/06 00:38:32;;;;;;;2.03;1.65;;;;;;;11.09;86.53;102601.41;5015849;28;20145;-45
2022/07/06 00:40:59;;;;;;;2.33;1.50;;;;;;;11.11;86.32;102597.19;5015769;28;20561;-47
2022/07/06 00:43:25;;;;;;;2.08;1.88;;;;;;;11.11;86.30;102591.88;5016392;28;20146;-46
2022/07/06 00:45:51;;;;;;;3.83;1.70;;;;;;;11.09;86.14;102591.50;5015405;28;20137;-49
2022/07/06 00:48:18;;;;;;;2.78;1.45;;;;;;;11.03;86.69;102596.50;5016219;28;20117;-47
2022/07/06 00:50:45;;;;;;;4.15;1.70;;;;;;;10.94;87.06;102590.91;5015875;28;20065;-46
2022/07/06 00:53:12;;;;;;;4.80;1.60;;;;;;;10.90;86.89;102592.84;5015526;28;20138;-47
2022/07/06 00:55:40;;;;;;;1.75;1.52;;;;;;;10.90;87.39;102595.50;5015967;28;20137;-47
2022/07/06 00:58:07;;;;;;;2.47;1.85;;;;;;;10.90;87.23;102594.75;5016082;28;20153;-43
2022/07/06 01:00:35;;;;;;;1.60;1.50;;;;;;;10.92;87.31;102595.09;5015577;28;20054;-47
2022/07/06 01:03:01;;;;;;;1.83;1.73;;;;;;;10.91;87.16;102606.91;5015997;28;20084;-47
2022/07/06 01:05:29;;;;;;;2.58;1.70;;;;;;;10.92;87.19;102601.19;5015211;28;20043;-47
2022/07/06 01:07:56;;;;;;;3.60;1.67;;;;;;;10.87;87.31;102606.94;5015722;28;20592;-46
2022/07/06 01:10:23;;;;;;;4.90;1.77;;;;;;;10.85;87.35;102606.59;5015428;28;20533;-47
2022/07/06 01:12:50;;;;;;;1.73;1.50;;;;;;;10.84;87.43;102606.97;5016087;28;20053;-48
2022/07/06 01:15:19;;;;;;;3.67;1.60;;;;;;;10.83;87.99;102610.78;5015881;28;20055;-49
2022/07/06 01:17:46;;;;;;;2.80;1.65;;;;;;;10.77;88.32;102610.50;5014368;28;20058;-44
2022/07/06 01:20:21;;;;;;;2.40;1.50;;;;;;;10.74;87.84;102608.63;5015627;28;20061;-46
2022/07/06 01:22:48;;;;;;;2.17;1.60;;;;;;;10.73;88.19;102615.09;5016009;28;20046;-43
2022/07/06 01:25:15;;;;;;;2.00;1.52;;;;;;;10.76;88.16;102610.88;5015218;28;20165;-48
2022/07/06 01:27:42;;;;;;;2.90;1.40;;;;;;;10.76;88.16;102611.66;5015728;28;20061;-44
2022/07/06 01:30:15;;;;;;;2.08;1.70;;;;;;;10.70;88.32;102607.91;5015640;28;20061;-44
2022/07/06 01:32:42;;;;;;;1.50;1.40;;;;;;;10.70;88.28;102607.91;5015211;28;20407;-43
2022/07/06 01:35:12;;;;;;;3.50;1.45;;;;;;;10.66;88.21;102607.16;5015578;28;20497;-43
2022/07/06 01:37:39;;;;;;;2.85;1.30;;;;;;;10.64;88.50;102598.81;5014357;28;20068;-43
2022/07/06 01:40:07;;;;;;;3.15;1.30;;;;;;;10.63;88.97;102595.41;5014738;28;20054;-43
2022/07/06 01:42:35;;;;;;;2.15;1.48;;;;;;;10.63;88.91;102590.06;5015617;28;20050;-45
2022/07/06 01:45:03;;;;;;;5.65;1.80;;;;;;;10.65;89.07;102589.66;5014238;28;20046;-42
2022/07/06 01:47:29;;;;;;;1.98;1.50;;;;;;;10.67;88.76;102590.78;5015546;28;20084;-43
2022/07/06 01:50:00;;;;;;;1.65;1.30;;;;;;;10.67;88.63;102593.44;5015302;28;20495;-44
2022/07/06 01:52:26;;;;;;;1.25;1.10;;;;;;;10.67;88.32;102595.38;5013700;28;20057;-44
2022/07/06 01:54:55;;;;;;;1.42;1.38;;;;;;;10.64;88.23;102601.47;5015388;28;20129;-48
2022/07/06 01:57:21;;;;;;;5.85;1.20;;;;;;;10.62;88.31;102590.47;5014099;28;20065;-44
2022/07/06 01:59:48;;;;;;;1.50;1.40;;;;;;;10.60;88.67;102595.41;5015332;28;20613;-43
2022/07/06 02:02:15;;;;;;;2.15;1.25;;;;;;;10.55;88.64;102591.28;5015192;28;20050;-47
2022/07/06 02:04:41;;;;;;;3.42;1.27;;;;;;;10.51;88.77;102589.78;5015292;28;20050;-43
2022/07/06 02:07:08;;;;;;;2.55;1.33;;;;;;;10.47;88.14;102594.38;5014316;28;20046;-43
2022/07/06 02:09:34;;;;;;;3.80;1.40;;;;;;;10.42;88.92;102594.81;5014868;28;20633;-44
2022/07/06 02:12:00;;;;;;;2.53;1.30;;;;;;;10.39;89.16;102592.94;5013737;28;20046;-43
2022/07/06 02:14:27;;;;;;;1.40;1.30;;;;;;;10.39;89.01;102592.94;5015171;28;20062;-44
2022/07/06 02:16:53;;;;;;;1.90;1.50;;;;;;;10.41;89.22;102591.38;5014708;28;20380;-42
2022/07/06 02:19:19;;;;;;;3.13;1.85;;;;;;;10.41;89.13;102591.38;5014535;28;20050;-43
2022/07/06 02:21:46;;;;;;;1.70;1.23;;;;;;;10.41;89.18;102590.63;5014984;28;20069;-45
2022/07/06 02:24:12;;;;;;;1.50;1.40;;;;;;;10.40;89.76;102586.47;5014564;28;20046;-43
2022/07/06 02:26:39;;;;;;;2.95;1.90;;;;;;;10.42;89.84;102587.56;5014340;28;20090;-44
2022/07/06 02:29:05;;;;;;;3.38;1.70;;;;;;;10.46;90.14;102585.63;5014744;28;20506;-42
2022/07/06 02:31:32;;;;;;;1.33;1.20;;;;;;;10.51;90.17;102590.53;5014215;28;20050;-43
2022/07/06 02:33:58;;;;;;;2.63;1.60;;;;;;;10.52;90.66;102588.63;5013047;28;20121;-42
2022/07/06 02:36:24;;;;;;;1.73;1.60;;;;;;;10.49;90.35;102587.53;5014698;28;20054;-43
2022/07/06 02:38:51;;;;;;;1.50;1.40;;;;;;;10.49;90.54;102587.53;5014171;28;20053;-45
2022/07/06 02:41:17;;;;;;;1.35;1.20;;;;;;;10.54;90.65;102592.41;5013900;28;20129;-43
2022/07/06 02:43:44;;;;;;;3.75;1.40;;;;;;;10.55;90.54;102596.59;5014729;28;20046;-43
2022/07/06 02:46:10;;;;;;;3.10;1.58;;;;;;;10.58;90.76;102603.06;5013929;28;20509;-44
2022/07/06 02:48:37;;;;;;;2.05;1.70;;;;;;;10.60;91.02;102603.41;5014424;28;20494;-47
2022/07/06 02:51:03;;;;;;;2.90;1.40;;;;;;;10.60;90.67;102604.16;5014413;28;20065;-43
2022/07/06 02:53:29;;;;;;;2.58;1.70;;;;;;;10.63;91.34;102602.63;5013681;28;20137;-46
2022/07/06 02:55:56;;;;;;;4.50;1.58;;;;;;;10.65;91.55;102603.75;5014259;28;20494;-43
2022/07/06 02:58:22;;;;;;;3.88;1.65;;;;;;;10.67;91.52;102603.34;5013593;28;20059;-45
2022/07/06 03:00:49;;;;;;;1.75;1.52;;;;;;;10.71;91.96;102601.41;5014502;28;20109;-42
2022/07/06 03:03:16;;;;;;;3.42;1.70;;;;;;;10.75;91.47;102606.72;5013755;28;20054;-44
2022/07/06 03:05:43;;;;;;;4.20;1.42;;;;;;;10.74;91.70;102599.88;5014168;28;20137;-43
2022/07/06 03:08:09;;;;;;;5.80;1.20;;;;;;;10.78;91.59;102593.38;5013875;28;20046;-43
2022/07/06 03:10:35;;;;;;;3.55;1.40;;;;;;;10.83;92.16;102602.81;5013647;28;20050;-42
2022/07/06 03:13:02;;;;;;;1.95;1.45;;;;;;;10.88;91.52;102602.38;5013992;28;20054;-43
2022/07/06 03:15:28;;;;;;;3.33;1.50;;;;;;;10.90;91.53;102597.41;5012778;28;20956;-44
2022/07/06 03:17:54;;;;;;;2.33;1.40;;;;;;;10.94;91.51;102598.88;5013587;28;20053;-43
2022/07/06 03:20:21;;;;;;;1.55;1.42;;;;;;;10.98;91.01;102598.84;5013915;28;20163;-43
2022/07/06 03:22:47;;;;;;;1.33;1.23;;;;;;;11.03;91.17;102603.75;5013344;28;20057;-47
2022/07/06 03:25:14;;;;;;;2.70;1.10;;;;;;;11.01;90.59;102603.38;5013912;28;20050;-45
2022/07/06 03:27:40;;;;;;;2.17;1.48;;;;;;;11.07;90.80;102607.13;5013389;28;20049;-43
2022/07/06 03:30:07;;;;;;;1.67;1.40;;;;;;;11.14;91.40;102608.97;5013023;28;20054;-47
2022/07/06 03:32:39;;;;;;;2.85;1.10;;;;;;;11.20;90.71;102613.44;5013746;28;20050;-48
2022/07/06 03:35:06;;;;;;;4.22;1.20;;;;;;;11.24;91.33;102611.50;5013597;28;20488;-44
2022/07/06 03:37:33;;;;;;;6.05;1.25;;;;;;;11.26;91.05;102614.53;5010521;28;20054;-44
2022/07/06 03:39:59;;;;;;;1.83;1.40;;;;;;;11.29;91.22;102611.06;5012961;28;20118;-45
2022/07/06 03:42:25;;;;;;;2.63;1.27;;;;;;;11.31;91.31;102608.75;5013651;28;20124;-44
2022/07/06 03:44:52;;;;;;;4.68;1.20;;;;;;;11.31;90.70;102610.66;5012950;28;20054;-44
2022/07/06 03:47:18;;;;;;;2.65;1.17;;;;;;;11.30;90.77;102604.59;5013718;28;20059;-46
2022/07/06 03:49:45;;;;;;;2.22;1.30;;;;;;;11.33;90.47;102609.13;5027259;28;20434;-46
2022/07/06 03:52:11;;;;;;;3.85;1.30;;;;;;;11.36;90.94;102605.66;5013595;28;20109;-46
2022/07/06 03:54:38;;;;;;;1.33;1.20;;;;;;;11.38;91.11;102610.59;5013455;28;20061;-45
2022/07/06 03:57:04;;;;;;;4.55;2.17;;;;;;;11.40;91.25;102613.63;5012162;28;20072;-43
2022/07/06 03:59:30;;;;;;;8.65;1.20;;;;;;;11.46;91.62;102609.34;5012604;28;20077;-45
2022/07/06 04:01:57;;;;;;;2.53;1.30;;;;;;;11.52;91.92;102610.41;5016271;28;20061;-45
2022/07/06 04:04:23;;;;;;;1.92;1.00;;;;;;;11.57;91.25;102601.22;5014466;28;20145;-44
2022/07/06 04:06:50;;;;;;;2.10;1.15;;;;;;;11.61;91.65;102605.34;5016903;28;20056;-44
2022/07/06 04:09:16;;;;;;;1.25;1.15;;;;;;;11.64;90.52;102596.53;5016075;28;20042;-44
2022/07/06 04:11:42;;;;;;;3.05;1.23;;;;;;;11.67;91.10;102606.41;5015975;28;20463;-43
2022/07/06 04:14:09;;;;;;;3.13;1.08;;;;;;;11.75;91.01;102595.63;5016775;28;20055;-47
2022/07/06 04:16:35;;;;;;;1.23;1.13;;;;;;;11.86;90.98;102601.63;5016521;28;20048;-49
2022/07/06 04:19:01;;;;;;;1.30;1.10;;;;;;;11.92;90.16;102600.00;5015724;28;20137;-45
2022/07/06 04:21:28;;;;;;;0.95;0.95;;;;;;;11.96;89.96;102604.13;5016470;28;20050;-45
2022/07/06 04:23:54;;;;;;;0.75;0.75;;;;;;;11.99;89.88;102608.66;5016786;28;20066;-47
2022/07/06 04:26:21;;;;;;;3.40;1.15;;;;;;;11.96;89.82;102601.47;5014744;28;20054;-45
2022/07/06 04:28:47;;;;;;;2.70;1.08;;;;;;;11.91;89.64;102609.94;5012025;28;20051;-43
2022/07/06 04:31:15;;;;;;;2.15;1.52;;;;;;;11.87;90.06;102606.56;5016650;28;20050;-43
2022/07/06 04:33:42;;;;;;;2.55;1.42;;;;;;;11.93;89.88;102598.84;5016038;28;20061;-44
2022/07/06 04:36:10;;;;;;;2.17;1.02;;;;;;;12.06;91.33;102601.69;5016418;28;20046;-44
2022/07/06 04:38:37;;;;;;;4.25;1.13;;;;;;;12.13;89.62;102606.94;5015815;28;20062;-49
2022/07/06 04:41:03;;;;;;;1.15;1.00;;;;;;;12.22;90.45;102601.84;5016028;28;20054;-43
2022/07/06 04:43:30;;;;;;;4.65;1.20;;;;;;;12.29;90.93;102610.50;5015734;28;20058;-43
2022/07/06 04:45:56;;;;;;;3.65;1.20;;;;;;;12.36;89.42;102601.63;5016358;28;20050;-43
2022/07/06 04:48:22;;;;;;;1.63;0.95;;;;;;;12.46;90.32;102598.00;5015183;28;20540;-43
2022/07/06 04:50:49;;;;;;;2.35;0.95;;;;;;;12.55;88.91;102603.56;5014815;28;20081;-44
2022/07/06 04:53:16;;;;;;;1.25;0.80;;;;;;;12.63;89.46;102601.53;5016058;28;20059;-43
2022/07/06 04:55:42;;;;;;;1.88;1.10;;;;;;;12.69;88.77;102611.34;5016051;28;20050;-43
2022/07/06 04:58:09;;;;;;;1.33;1.10;;;;;;;12.80;89.95;102605.81;5015486;28;20057;-46
2022/07/06 05:00:35;;;;;;;1.35;1.02;;;;;;;12.86;88.18;102603.41;5015611;28;20054;-44
2022/07/06 05:03:01;;;;;;;4.93;1.13;;;;;;;12.98;89.04;102603.56;5013006;28;20145;-44
2022/07/06 05:05:28;;;;;;;2.55;1.10;;;;;;;13.08;88.70;102607.22;5030932;28;20081;-44
2022/07/06 05:07:54;;;;;;;2.28;1.40;;;;;;;13.19;88.18;102607.03;5015402;28;20061;-44
2022/07/06 05:10:21;;;;;;;2.45;1.05;;;;;;;13.27;86.34;102613.72;5015329;28;20072;-43
2022/07/06 05:12:47;;;;;;;4.10;1.20;;;;;;;13.44;85.89;102609.19;5015963;28;20054;-43
2022/07/06 05:15:13;;;;;;;3.97;1.20;;;;;;;13.63;85.76;102616.44;5014673;28;20050;-47
2022/07/06 05:17:40;;;;;;;3.83;1.17;;;;;;;13.86;83.81;102620.91;5015015;28;20050;-44
2022/07/06 05:20:07;;;;;;;5.95;1.27;;;;;;;14.12;83.23;102621.84;5015647;28;20061;-44
2022/07/06 05:22:33;;;;;;;2.25;1.00;;;;;;;14.38;80.63;102612.81;5015377;28;20400;-44
2022/07/06 05:25:00;;;;;;;3.65;0.95;;;;;;;14.61;80.75;102614.56;5014839;28;20057;-46
2022/07/06 05:27:27;;;;;;;5.68;1.10;;;;;;;14.59;80.79;102624.94;5015135;28;20054;-49
2022/07/06 05:29:53;;;;;;;3.38;0.90;;;;;;;14.49;79.29;102620.59;5014463;28;20054;-44
2022/07/06 05:32:19;;;;;;;2.63;1.13;;;;;;;14.56;79.42;102623.09;5013490;28;20621;-44
2022/07/06 05:34:46;;;;;;;2.40;1.10;;;;;;;14.79;78.79;102622.16;5013147;28;20438;-46
2022/07/06 05:37:12;;;;;;;1.67;0.80;;;;;;;15.70;78.21;102625.34;5010073;28;20059;-45
2022/07/06 05:39:39;;;;;;;4.10;1.30;;;;;;;19.90;59.89;102632.25;5013764;28;20054;-44
2022/07/06 05:42:08;;;;;;;3.63;0.98;;;;;;;21.89;54.85;102624.63;5015257;28;20065;-46
2022/07/06 05:44:34;;;;;;;2.53;1.05;;;;;;;23.29;49.35;102637.69;5014327;28;20493;-44
2022/07/06 05:52:31;;;;;;;2.20;0.90;;;;;;;23.51;47.67;102646.00;5010874;28;20063;-47
2022/07/06 05:54:57;;;;;;;5.93;0.90;;;;;;;24.79;45.26;102645.03;5010685;28;20498;-48
2022/07/06 05:57:23;;;;;;;1.00;0.90;;;;;;;26.81;39.72;102638.44;5011521;28;20058;-45
2022/07/06 05:59:50;;;;;;;2.83;0.80;;;;;;;28.31;36.90;102643.63;5012501;28;20884;-45
2022/07/06 06:02:17;;;;;;;1.20;0.90;;;;;;;28.74;35.29;102640.00;5012360;28;20061;-48
2022/07/06 06:04:43;;;;;;;2.83;0.82;;;;;;;28.94;35.19;102638.69;5012782;28;20054;-45
2022/07/06 06:07:10;;;;;;;0.70;0.70;;;;;;;29.74;33.78;102637.47;5012928;28;20053;-49
2022/07/06 06:09:36;;;;;;;5.00;0.90;;;;;;;30.67;31.19;102635.19;5012499;28;20051;-48
2022/07/06 06:12:03;;;;;;;2.38;0.90;;;;;;;30.90;30.93;102641.59;5011693;28;20421;-50
2022/07/06 06:14:29;;;;;;;2.47;1.30;;;;;;;31.23;30.11;102640.00;5013674;28;20073;-43
2022/07/06 06:16:56;;;;;;;1.77;0.90;;;;;;;31.83;29.33;102642.34;5014469;28;20417;-44
2022/07/06 06:19:22;;;;;;;2.95;1.10;;;;;;;31.51;29.05;102644.75;5014775;28;20054;-44
2022/07/06 06:21:49;;;;;;;3.95;1.20;;;;;;;31.85;28.91;102636.31;5014218;28;20069;-45
2022/07/06 06:24:15;;;;;;;7.53;0.95;;;;;;;30.21;31.26;102647.72;5013576;28;20047;-43
2022/07/06 06:26:41;;;;;;;4.38;1.27;;;;;;;28.80;32.54;102646.84;5013791;28;20052;-51
2022/07/06 06:29:08;;;;;;;5.60;1.05;;;;;;;27.27;34.29;102653.25;5013829;28;20050;-46
2022/07/06 06:31:34;;;;;;;2.83;0.98;;;;;;;27.46;35.70;102661.53;5014000;28;20059;-45
2022/07/06 06:34:07;;;;;;;1.70;0.95;;;;;;;28.10;34.15;102654.31;5012158;28;20534;-44
2022/07/06 06:36:33;;;;;;;4.60;1.08;;;;;;;29.71;32.37;102660.47;5013372;28;20052;-46
2022/07/06 06:38:59;;;;;;;3.03;1.17;;;;;;;30.69;31.84;102655.38;5014184;28;20058;-44
2022/07/06 06:41:26;;;;;;;5.45;1.02;;;;;;;30.69;30.89;102660.13;5013043;28;20060;-49
2022/07/06 06:43:52;;;;;;;4.13;1.00;;;;;;;30.38;30.51;102657.06;5014041;28;20054;-49
2022/07/06 06:46:18;;;;;;;4.85;0.90;;;;;;;30.48;31.05;102654.59;5013857;28;20077;-45
2022/07/06 06:48:45;;;;;;;3.33;0.95;;;;;;;30.50;30.52;102654.78;5012350;28;20479;-45
2022/07/06 06:51:11;;;;;;;2.55;0.80;;;;;;;31.44;30.25;102648.22;5013523;28;20060;-50
2022/07/06 06:53:38;;;;;;;1.05;0.90;;;;;;;31.53;28.18;102655.22;5013660;28;20050;-51
2022/07/06 06:56:06;;;;;;;3.72;1.15;;;;;;;30.44;29.44;102663.16;5013999;28;20478;-48
2022/07/06 06:58:32;;;;;;;4.00;1.20;;;;;;;29.16;34.22;102668.47;5012891;28;20051;-48
2022/07/06 07:01:18;;;;;;;2.38;1.05;;;;;;;30.36;30.07;102661.63;5013856;28;20054;-45
2022/07/06 07:03:45;;;;;;;2.72;1.17;;;;;;;29.89;30.68;102667.09;5013191;28;20125;-47
2022/07/06 07:06:11;;;;;;;5.35;1.10;;;;;;;30.60;28.92;102655.84;5013698;28;20046;-44
2022/07/06 07:08:38;;;;;;;2.30;1.20;;;;;;;31.42;29.84;102659.03;5012963;28;20050;-46
2022/07/06 07:11:04;;;;;;;2.35;0.95;;;;;;;31.95;28.15;102659.28;5010998;28;20058;-47
2022/07/06 07:13:31;;;;;;;2.97;1.17;;;;;;;29.25;31.15;102659.81;5013690;28;20060;-44
2022/07/06 07:15:57;;;;;;;3.83;1.10;;;;;;;30.29;29.18;102665.03;5009553;28;20053;-46
2022/07/06 07:18:24;;;;;;;2.40;0.98;;;;;;;30.49;29.75;102665.03;5010984;28;20050;-46
2022/07/06 07:20:50;;;;;;;2.65;0.90;;;;;;;30.60;29.14;102669.56;5011366;28;20101;-45
2022/07/06 07:23:17;;;;;;;2.25;0.93;;;;;;;28.23;33.23;102663.91;5011013;28;20133;-48
2022/07/06 07:25:43;;;;;;;3.88;0.98;;;;;;;28.23;35.97;102672.09;5011632;28;20074;-43
2022/07/06 07:28:10;;;;;;;1.75;0.95;;;;;;;26.69;34.51;102669.09;5012098;28;20057;-45
2022/07/06 07:30:36;;;;;;;1.90;1.10;;;;;;;25.62;37.14;102662.56;5011001;28;20065;-45
2022/07/06 07:33:02;;;;;;;2.80;0.90;;;;;;;27.32;32.24;102660.66;5012724;28;20054;-44
2022/07/06 07:35:29;;;;;;;1.70;0.80;;;;;;;28.04;34.10;102661.84;5014246;28;20050;-45
2022/07/06 07:37:55;;;;;;;1.92;0.85;;;;;;;29.01;31.96;102665.47;5015638;28;20076;-47
2022/07/06 07:40:22;;;;;;;2.05;0.90;;;;;;;29.64;29.96;102666.59;5014076;28;20055;-46
2022/07/06 07:42:48;;;;;;;4.15;1.23;;;;;;;28.57;31.64;102661.41;5015587;28;20059;-46
2022/07/06 07:45:15;;;;;;;1.15;0.95;;;;;;;28.64;31.14;102669.03;5016255;28;20463;-45
2022/07/06 07:47:42;;;;;;;1.15;0.80;;;;;;;28.91;31.01;102672.63;5016692;28;20057;-49
2022/07/06 07:50:08;;;;;;;3.83;0.90;;;;;;;28.38;31.68;102672.41;5015730;28;20078;-46
2022/07/06 07:52:35;;;;;;;1.05;0.95;;;;;;;28.34;31.32;102669.22;5016798;28;20058;-46
2022/07/06 07:55:02;;;;;;;2.63;0.90;;;;;;;26.71;34.84;102664.63;5009379;28;20047;-48
2022/07/06 07:57:48;;;;;;;1.85;0.73;;;;;;;25.84;38.53;102654.38;5016081;28;20089;-44
2022/07/06 08:00:15;;;;;;;1.67;1.00;;;;;;;26.82;34.88;102664.50;5015160;28;20054;-44
2022/07/06 08:02:41;;;;;;;0.80;0.80;;;;;;;27.84;31.51;102654.91;5015671;28;20407;-44
2022/07/06 08:05:08;;;;;;;4.35;1.30;;;;;;;27.96;32.42;102657.50;5016269;28;20042;-46
2022/07/06 08:07:34;;;;;;;16.02;2.47;;;;;;;28.61;31.39;102659.84;5016008;28;20051;-46
2022/07/06 08:10:00;;;;;;;4.25;0.93;;;;;;;28.86;30.50;102653.00;5030700;28;20057;-49
2022/07/06 08:12:27;;;;;;;6.97;1.52;;;;;;;28.83;31.96;102653.31;5012868;28;20070;-45
2022/07/06 08:14:53;;;;;;;1.35;0.82;;;;;;;27.29;34.16;102656.19;5016246;28;20042;-45
2022/07/06 08:17:19;;;;;;;4.15;1.20;;;;;;;26.75;34.39;102656.16;5015408;28;20054;-47
2022/07/06 08:19:46;;;;;;;6.55;1.00;;;;;;;25.95;33.74;102646.16;5016588;28;20071;-44
2022/07/06 08:22:12;;;;;;;1.60;1.10;;;;;;;25.68;36.26;102649.69;5015684;28;20061;-48
2022/07/06 08:24:38;;;;;;;1.02;1.00;;;;;;;24.83;39.17;102662.59;5016070;28;20065;-45
2022/07/06 08:27:05;;;;;;;3.05;1.00;;;;;;;24.83;38.75;102659.13;5014355;28;20053;-45
2022/07/06 08:29:31;;;;;;;2.35;0.90;;;;;;;25.52;38.74;102649.22;5015963;28;20406;-45
2022/07/06 08:31:58;;;;;;;2.22;0.90;;;;;;;24.72;37.73;102648.25;5015249;28;20064;-44
2022/07/06 08:34:37;;;;;;;2.92;0.80;;;;;;;24.88;39.91;102652.94;5016177;28;20444;-48
2022/07/06 08:37:04;;;;;;;2.47;0.85;;;;;;;25.39;37.02;102640.81;5015904;28;20061;-47
2022/07/06 08:39:30;;;;;;;2.28;1.00;;;;;;;24.64;35.96;102652.69;5015610;28;20178;-48
2022/07/06 08:41:58;;;;;;;92.72;37.78;;;;;;;23.51;41.73;102654.16;5014839;28;20064;-44
2022/07/06 08:44:26;;;;;;;9.13;2.78;;;;;;;23.14;40.38;102648.69;5016207;28;20498;-47
2022/07/06 08:46:54;;;;;;;6.70;1.02;;;;;;;23.23;39.05;102650.47;5015631;28;20061;-43
2022/07/06 08:49:21;;;;;;;8.63;1.30;;;;;;;22.77;43.31;102650.56;5016219;28;20367;-44
2022/07/06 08:51:48;;;;;;;3.67;1.10;;;;;;;22.66;43.89;102640.34;5016126;28;20070;-45
2022/07/06 08:54:15;;;;;;;6.32;1.13;;;;;;;23.12;39.99;102634.84;5015928;28;20494;-45
2022/07/06 08:56:42;;;;;;;2.05;0.70;;;;;;;23.02;38.12;102635.50;5016212;28;20051;-46
2022/07/06 08:59:15;;;;;;;2.45;0.90;;;;;;;22.74;42.93;102643.38;5016373;28;20069;-46
2022/07/06 09:01:44;;;;;;;0.95;0.90;;;;;;;22.80;39.83;102633.31;5016028;28;20046;-48
2022/07/06 09:04:12;;;;;;;3.40;0.90;;;;;;;23.35;40.76;102638.47;5012819;28;20085;-44
2022/07/06 09:06:41;;;;;;;1.65;0.82;;;;;;;24.60;39.23;102642.03;5014996;28;20046;-47
2022/07/06 09:09:09;;;;;;;2.42;1.00;;;;;;;25.32;38.51;102641.31;5015801;28;20058;-44
2022/07/06 09:11:37;;;;;;;2.35;0.98;;;;;;;25.74;38.41;102647.69;5015699;28;20070;-47
2022/07/06 09:14:03;;;;;;;7.10;1.00;;;;;;;26.02;38.87;102637.41;5015560;28;20057;-47
2022/07/06 09:16:30;;;;;;;2.45;1.00;;;;;;;26.49;38.94;102640.91;5016003;28;20478;-45
2022/07/06 09:19:07;;;;;;;5.63;1.20;;;;;;;25.69;39.56;102640.28;5013811;28;20113;-45
2022/07/06 09:21:36;;;;;;;7.85;1.00;;;;;;;25.29;37.13;102638.84;5014747;28;20061;-44
2022/07/06 09:24:07;;;;;;;1.48;1.00;;;;;;;25.06;38.22;102644.31;5014979;28;20082;-45
2022/07/06 09:26:34;;;;;;;0.85;0.80;;;;;;;25.45;40.54;102638.09;5013239;28;20514;-44
2022/07/06 09:29:02;;;;;;;1.05;0.70;;;;;;;25.01;36.22;102639.63;5014926;28;20050;-45
2022/07/06 09:31:28;;;;;;;3.35;0.80;;;;;;;24.58;42.85;102644.50;5014483;28;20058;-45
2022/07/06 09:34:06;;;;;;;2.42;1.13;;;;;;;24.72;40.20;102651.72;5014553;28;20475;-44
2022/07/06 09:36:41;;;;;;;3.60;0.85;;;;;;;25.18;40.01;102650.53;5013795;28;20366;-45
2022/07/06 09:39:25;;;;;;;1.65;0.93;;;;;;;25.39;37.87;102649.00;5014797;28;20050;-46
2022/07/06 09:41:57;;;;;;;1.58;0.90;;;;;;;25.24;37.79;102643.06;5013498;28;20085;-45
2022/07/06 09:44:27;;;;;;;3.67;0.80;;;;;;;24.42;39.96;102650.63;5014798;28;20061;-44
2022/07/06 09:47:02;;;;;;;7.90;1.20;;;;;;;23.73;40.16;102636.50;5014201;28;20058;-43
2022/07/06 09:49:29;;;;;;;6.18;1.00;;;;;;;23.59;42.22;102649.75;5014374;28;20470;-45
2022/07/06 09:51:57;;;;;;;2.30;0.80;;;;;;;23.31;42.25;102650.78;5013966;28;20054;-44
2022/07/06 09:54:24;;;;;;;1.95;1.00;;;;;;;23.21;43.12;102645.53;5011740;28;20046;-44
2022/07/06 09:56:52;;;;;;;1.00;0.90;;;;;;;23.41;42.44;102655.56;5012124;28;20055;-44
2022/07/06 09:59:21;;;;;;;6.30;1.00;;;;;;;23.46;40.80;102657.56;5013055;28;20050;-45
2022/07/06 10:01:51;;;;;;;2.75;0.95;;;;;;;23.36;41.41;102658.22;5013884;28;20446;-45
2022/07/06 10:04:20;;;;;;;1.70;0.85;;;;;;;23.60;41.09;102659.41;5014640;28;20061;-45
2022/07/06 10:06:47;;;;;;;3.92;1.00;;;;;;;23.82;42.07;102666.22;5014069;28;20054;-44
2022/07/06 10:09:14;;;;;;;2.22;0.70;;;;;;;24.02;36.72;102657.16;5013146;28;20054;-46
2022/07/06 10:11:47;;;;;;;5.05;0.90;;;;;;;24.39;39.68;102654.38;5015132;28;20054;-44
2022/07/06 10:14:17;;;;;;;4.63;0.80;;;;;;;24.59;36.37;102656.88;5013620;28;20069;-47
2022/07/06 10:16:45;;;;;;;4.70;0.95;;;;;;;24.78;42.41;102659.88;5014789;28;20494;-44
2022/07/06 10:19:13;;;;;;;14.55;1.02;;;;;;;24.47;40.36;102655.34;5014499;28;20552;-44
2022/07/06 10:21:41;;;;;;;4.22;1.13;;;;;;;24.31;37.79;102639.75;5014450;28;20050;-45
2022/07/06 10:24:08;;;;;;;8.07;1.00;;;;;;;25.21;40.62;102647.50;5013763;28;20158;-46
2022/07/06 10:26:36;;;;;;;3.58;0.85;;;;;;;25.44;38.39;102652.97;5014627;28;20064;-46
2022/07/06 10:29:03;;;;;;;0.50;0.50;;;;;;;25.66;38.71;102644.00;5014042;28;20054;-47
2022/07/06 10:31:32;;;;;;;2.95;0.80;;;;;;;26.43;37.72;102634.00;5014297;28;20054;-46
2022/07/06 10:34:00;;;;;;;3.55;0.90;;;;;;;26.36;37.12;102640.78;5029472;28;20061;-47
2022/07/06 10:36:28;;;;;;;4.90;0.90;;;;;;;26.66;37.16;102640.06;5013874;28;20055;-45
2022/07/06 10:38:55;;;;;;;1.52;0.68;;;;;;;26.95;34.31;102638.59;5014263;28;20524;-47
2022/07/06 10:41:32;;;;;;;1.35;0.80;;;;;;;26.81;36.83;102637.69;5013439;28;20069;-46
2022/07/06 10:44:18;;;;;;;1.77;1.00;;;;;;;26.60;34.29;102634.66;5013252;28;20056;-48
2022/07/06 10:46:58;;;;;;;0.85;0.60;;;;;;;27.11;39.43;102635.75;5014080;28;20133;-49
2022/07/06 10:49:27;;;;;;;0.90;0.80;;;;;;;27.54;32.06;102640.56;5013412;28;20055;-46
2022/07/06 10:52:16;;;;;;;2.28;0.98;;;;;;;27.86;36.13;102630.50;5013366;28;20058;-46
2022/07/06 10:54:43;;;;;;;0.65;0.65;;;;;;;27.11;35.12;102627.56;5013646;28;20050;-47
2022/07/06 10:57:14;;;;;;;4.75;0.90;;;;;;;27.06;34.95;102620.16;5013740;28;20058;-48
2022/07/06 10:59:59;;;;;;;2.13;0.80;;;;;;;27.20;33.07;102629.94;5012143;28;20086;-49
2022/07/06 11:02:26;;;;;;;1.58;0.80;;;;;;;26.98;31.73;102627.41;5013892;28;20054;-46
2022/07/06 11:04:52;;;;;;;2.05;0.70;;;;;;;26.91;32.57;102623.22;5013989;28;20273;-50
2022/07/06 11:07:20;;;;;;;3.63;0.93;;;;;;;26.94;31.34;102629.66;5013034;28;20054;-50
2022/07/06 11:09:59;;;;;;;0.93;0.70;;;;;;;26.22;35.26;102622.69;5013496;28;20146;-47
2022/07/06 11:12:26;;;;;;;1.02;0.80;;;;;;;25.50;35.14;102613.53;5013917;28;20140;-48
2022/07/06 11:14:53;;;;;;;1.20;0.95;;;;;;;25.38;36.06;102609.34;5013113;28;20061;-46
2022/07/06 11:17:20;;;;;;;2.78;0.85;;;;;;;25.76;36.31;102605.03;5012097;28;20046;-45
2022/07/06 11:20:07;;;;;;;0.63;0.60;;;;;;;25.94;38.07;102608.47;5013834;28;20487;-46
2022/07/06 11:22:36;;;;;;;0.68;0.68;;;;;;;25.18;37.58;102601.47;5013311;28;20060;-47
2022/07/06 11:25:04;;;;;;;3.22;0.80;;;;;;;25.24;39.52;102602.19;5012596;28;20565;-46
2022/07/06 11:27:31;;;;;;;2.03;0.50;;;;;;;25.47;38.82;102594.72;5011537;28;20066;-46
2022/07/06 11:29:58;;;;;;;1.95;0.50;;;;;;;25.04;38.35;102597.75;5013691;28;20061;-47
2022/07/06 11:32:26;;;;;;;1.50;0.80;;;;;;;24.76;37.94;102597.75;5008316;28;20501;-48